Main page
METAR-TAF:

METAR-TAF

Airports :

Tiree Airport

Tiree, Scotland

latitude: 56-30N, longitude: 006-53W, elevation: 12 m

Current weather observation

The report was made 5 hours and 53 minutes ago, at 12:20 UTC
Wind 23 kt from the West/Southwest
Temperature
Pressure 1013 hPa
Visibility: 2100 m
Overcast at a height of 800 ft
light rain, drizzle

METAR: EGPU 291220Z 24023KT 2100 -RADZ OVC008 Q1013

Time: 18:13 (18:13 UTC)

Forecast

The report was made 4 hours and 9 minutes ago, at 14:04 UTC
Forecast valid from 29 at 15 UTC to 29 at 18 UTC
Wind 25 kt from the West
Visibility 10 km or more
Scattered clouds at a height of 2000 ft
Temporary
from 29 at 15 UTC to 29 at 18 UTC
Wind 28 kt from the West/Northwest with gusts up to 40 kt
Visibility: 6000 m
rain showers

TAF: EGPU 291404Z 2915/2918 28025KT 9999 SCT020 TEMPO 2915/2918 29028G40KT 6000 SHRA

Weather observations and forecasts of more than 4000 airports (METAR and TAF reports).

The available stations are represented by yellow and red dots on the map.

Hover mouse over dot to see the name of the station.

Then click to see weather observations and forecasts.

To change the map : click on the green buttons with a black cross to zoom in, on the green button with a dash to zoom out, or on the green arrows for adjacent maps.


METAR-TAF: